Time;durP1;ratioP1;P1;durP2;ratioP2;P2;SDS_P1;SDS_P2;PMS_P1;PMS_P2;Temp;Humidity;BMP_temperature;BMP_pressure;BME280_temperature;BME280_humidity;BME280_pressure;Samples;Min_cycle;Max_cycle;Signal;HPM_P1;HPM_P2
2022/05/25 00:01:26;;;;;;;2.80;1.80;;;;;;;10.02;90.00;100455.27;106056;1281;72323;-83
2022/05/25 00:03:55;;;;;;;3.40;1.80;;;;;;;10.05;89.64;100460.67;105968;1281;62980;-85
2022/05/25 00:06:22;;;;;;;2.30;1.70;;;;;;;10.09;89.69;100461.67;105940;1281;60391;-83
2022/05/25 00:08:49;;;;;;;4.90;2.30;;;;;;;10.13;89.58;100461.41;105803;1282;61402;-83
2022/05/25 00:11:18;;;;;;;3.20;2.20;;;;;;;10.18;89.71;100463.92;106070;1281;72458;-84
2022/05/25 00:13:45;;;;;;;2.50;1.60;;;;;;;10.24;89.46;100466.13;105883;1281;73493;-82
2022/05/25 00:16:15;;;;;;;6.60;2.50;;;;;;;10.29;89.37;100467.55;105677;1281;61195;-83
2022/05/25 00:19:58;;;;;;;4.30;2.20;;;;;;;10.33;88.96;100463.94;105705;1281;61428;-83
2022/05/25 00:21:30;;;;;;;7.00;1.80;;;;;;;10.37;88.76;100466.42;105966;1281;74759;-82
2022/05/25 00:23:57;;;;;;;3.70;1.80;;;;;;;10.40;88.91;100463.36;105745;1284;71554;-83
2022/05/25 00:26:24;;;;;;;3.90;1.60;;;;;;;10.45;88.78;100466.50;105923;1282;73069;-83
2022/05/25 00:28:50;;;;;;;2.30;1.80;;;;;;;10.52;88.65;100472.65;105968;1281;61418;-82
2022/05/25 00:31:20;;;;;;;2.50;1.70;;;;;;;10.57;88.65;100474.78;105690;1281;61151;-82
2022/05/25 00:33:46;;;;;;;3.30;1.40;;;;;;;10.63;88.35;100473.48;105813;1281;74407;-83
2022/05/25 00:36:19;;;;;;;4.00;1.60;;;;;;;10.68;88.12;100476.64;106100;1281;61264;-83
2022/05/25 00:38:46;;;;;;;2.90;1.30;;;;;;;10.72;87.73;100473.29;106235;1272;73144;-83
2022/05/25 00:41:15;;;;;;;4.30;1.60;;;;;;;10.75;87.60;100473.16;106197;1280;61253;-84
2022/05/25 00:43:42;;;;;;;4.40;1.40;;;;;;;10.76;87.35;100474.44;106261;1273;61077;-81
2022/05/25 00:46:20;;;;;;;3.50;1.30;;;;;;;10.77;87.31;100477.61;106155;1280;76856;-83
2022/05/25 00:48:53;;;;;;;2.20;1.20;;;;;;;10.77;87.49;100481.19;106093;1281;71242;-83
2022/05/25 00:51:28;;;;;;;3.10;1.50;;;;;;;10.76;87.51;100483.10;105943;1279;73035;-82
2022/05/25 00:54:00;;;;;;;3.10;1.50;;;;;;;10.75;87.54;100486.34;106030;1281;62258;-83
2022/05/25 00:56:29;;;;;;;2.40;1.50;;;;;;;10.74;87.60;100487.42;106446;1279;61162;-82
2022/05/25 00:59:01;;;;;;;2.60;1.60;;;;;;;10.72;87.38;100485.68;106569;1280;76700;-81
2022/05/25 01:01:29;;;;;;;2.10;1.80;;;;;;;10.71;87.66;100485.77;107417;1280;71421;-82
2022/05/25 01:03:57;;;;;;;5.50;1.30;;;;;;;10.72;87.83;100487.08;106302;1281;74009;-83
2022/05/25 01:06:42;;;;;;;4.40;1.30;;;;;;;10.73;87.77;100487.83;106560;1280;62284;-81
2022/05/25 01:09:27;;;;;;;4.10;1.50;;;;;;;10.74;87.64;100494.09;106191;1281;61271;-82
2022/05/25 01:12:03;;;;;;;3.00;1.10;;;;;;;10.74;87.51;100489.15;106252;1280;76091;-81
2022/05/25 01:14:38;;;;;;;3.30;1.60;;;;;;;10.73;87.50;100496.48;105947;1282;72408;-85
2022/05/25 01:17:28;;;;;;;3.20;1.80;;;;;;;10.74;87.27;100497.84;106003;1281;73977;-82
2022/05/25 01:20:06;;;;;;;2.40;1.80;;;;;;;10.74;87.08;100502.77;106089;1281;62053;-82
2022/05/25 01:22:44;;;;;;;2.50;1.20;;;;;;;10.72;87.00;100502.70;106275;1279;61595;-82
2022/05/25 01:25:27;;;;;;;4.00;1.40;;;;;;;10.69;87.25;100506.05;106492;1279;76402;-83
2022/05/25 01:27:58;;;;;;;3.50;1.60;;;;;;;10.66;87.32;100502.79;106288;1279;71449;-84
2022/05/25 01:30:33;;;;;;;6.10;3.60;;;;;;;10.65;87.19;100506.55;106200;1280;72694;-82
2022/05/25 01:33:07;;;;;;;2.40;1.30;;;;;;;10.63;87.14;100514.86;106066;1280;63247;-82
2022/05/25 01:35:59;;;;;;;1.80;1.20;;;;;;;10.62;87.11;100513.71;106098;1279;61817;-84
2022/05/25 01:38:45;;;;;;;2.60;1.50;;;;;;;10.60;87.15;100514.68;106274;1279;74874;-83
2022/05/25 01:41:22;;;;;;;2.10;1.40;;;;;;;10.57;87.11;100512.02;106210;1280;72180;-83
2022/05/25 01:43:58;;;;;;;4.40;1.70;;;;;;;10.53;87.50;100511.36;106207;1279;74719;-83
2022/05/25 01:46:36;;;;;;;3.30;1.60;;;;;;;10.52;87.26;100513.79;106143;1280;61695;-83
2022/05/25 01:49:07;;;;;;;3.70;1.60;;;;;;;10.52;87.36;100511.20;106160;1279;61195;-83
2022/05/25 01:51:41;;;;;;;3.30;1.40;;;;;;;10.52;87.13;100512.80;105965;1280;75238;-82
2022/05/25 01:54:12;;;;;;;3.30;1.50;;;;;;;10.51;87.33;100512.38;106154;1281;72398;-82
2022/05/25 01:56:41;;;;;;;3.20;2.00;;;;;;;10.49;87.11;100511.00;106609;1281;72751;-82
2022/05/25 01:59:11;;;;;;;3.30;1.50;;;;;;;10.47;87.34;100508.03;106266;1280;61995;-83
2022/05/25 02:04:19;;;;;;;4.40;2.30;;;;;;;10.45;87.12;100510.86;106494;1279;61867;-84
2022/05/25 02:04:44;;;;;;;2.10;1.40;;;;;;;10.43;87.23;100508.33;106431;1279;74707;-83
2022/05/25 02:07:25;;;;;;;2.40;1.40;;;;;;;10.39;86.92;100510.52;106244;1281;71314;-82
2022/05/25 02:10:03;;;;;;;2.40;1.50;;;;;;;10.34;87.47;100513.64;106325;1279;73581;-83
2022/05/25 02:13:07;;;;;;;2.30;1.40;;;;;;;10.29;87.65;100521.27;106443;1280;63431;-82
2022/05/25 02:15:59;;;;;;;3.80;2.00;;;;;;;10.22;87.62;100520.98;106136;1281;61266;-83
2022/05/25 02:18:55;;;;;;;4.10;1.90;;;;;;;10.16;87.79;100517.91;106003;1281;75985;-84
2022/05/25 02:22:13;;;;;;;2.40;1.40;;;;;;;10.09;88.13;100520.84;106163;1279;72507;-83
2022/05/25 02:24:51;;;;;;;3.40;1.70;;;;;;;10.02;88.04;100522.91;105700;1279;74572;-82
2022/05/25 02:27:39;;;;;;;4.10;2.10;;;;;;;9.96;88.18;100525.83;106273;1281;63536;-81
2022/05/25 02:30:17;;;;;;;4.80;1.90;;;;;;;9.91;88.26;100521.12;106976;1279;61938;-83
2022/05/25 02:32:54;;;;;;;5.90;2.00;;;;;;;9.87;88.62;100524.05;107208;1279;75294;-82
2022/05/25 02:35:24;;;;;;;3.20;1.90;;;;;;;9.83;88.89;100524.02;107884;1279;71558;-83
2022/05/25 02:38:02;;;;;;;2.80;1.90;;;;;;;9.79;88.87;100521.87;107587;1281;71804;-83
2022/05/25 02:40:29;;;;;;;3.20;1.70;;;;;;;9.77;89.27;100520.00;107381;1281;61950;-82
2022/05/25 02:42:55;;;;;;;4.10;1.90;;;;;;;9.77;89.24;100523.61;107447;1280;60623;-83
2022/05/25 02:45:22;;;;;;;4.10;2.30;;;;;;;9.76;89.20;100524.95;107012;1279;59703;-83
2022/05/25 02:47:50;;;;;;;4.60;2.30;;;;;;;9.75;89.62;100525.45;107191;1279;71273;-81
2022/05/25 02:50:17;;;;;;;3.20;1.80;;;;;;;9.72;90.34;100533.15;106585;1279;74928;-84
2022/05/25 02:52:49;;;;;;;3.20;1.90;;;;;;;9.72;90.35;100542.52;106375;1281;62304;-83
2022/05/25 02:55:17;;;;;;;5.40;2.50;;;;;;;9.71;90.62;100540.30;107014;1280;61755;-83
2022/05/25 02:57:43;;;;;;;4.30;2.70;;;;;;;9.70;90.76;100542.06;107287;1279;74848;-83
2022/05/25 03:00:11;;;;;;;6.90;2.30;;;;;;;9.69;91.09;100548.69;107064;1281;71369;-83
2022/05/25 03:02:39;;;;;;;3.70;2.10;;;;;;;9.67;91.26;100545.92;107237;1281;72274;-83
2022/05/25 03:05:06;;;;;;;3.70;2.10;;;;;;;9.66;91.08;100548.20;107304;1279;62151;-83
2022/05/25 03:07:36;;;;;;;4.50;2.80;;;;;;;9.63;91.61;100554.11;107499;1279;61169;-84
2022/05/25 03:10:04;;;;;;;4.10;2.40;;;;;;;9.62;91.46;100554.48;107487;1279;75467;-82
2022/05/25 03:12:31;;;;;;;3.20;2.50;;;;;;;9.60;91.64;100561.02;107423;1281;71778;-82
2022/05/25 03:14:57;;;;;;;5.00;2.70;;;;;;;9.59;91.59;100562.02;107470;1279;73187;-82
2022/05/25 03:17:24;;;;;;;3.10;1.90;;;;;;;9.57;91.90;100562.20;107252;1281;58934;-85
2022/05/25 03:19:55;;;;;;;4.20;2.10;;;;;;;9.57;92.01;100567.30;106572;1279;61200;-82
2022/05/25 03:22:23;;;;;;;5.80;2.20;;;;;;;9.56;92.38;100569.92;106066;1282;76203;-82
2022/05/25 03:24:51;;;;;;;4.00;2.30;;;;;;;9.55;92.26;100571.48;106187;1279;71316;-81
2022/05/25 03:27:18;;;;;;;3.20;2.20;;;;;;;9.53;92.70;100574.11;106003;1281;72932;-82
2022/05/25 03:29:44;;;;;;;6.10;2.50;;;;;;;9.53;92.20;100574.92;106134;1279;62209;-82
2022/05/25 03:32:11;;;;;;;5.10;3.50;;;;;;;9.52;92.29;100576.89;106283;1280;61801;-81
2022/05/25 03:34:41;;;;;;;4.50;2.20;;;;;;;9.52;92.79;100577.65;106138;1280;75534;-82
2022/05/25 03:37:07;;;;;;;5.20;2.60;;;;;;;9.52;92.17;100582.08;106247;1278;72516;-83
2022/05/25 03:39:34;;;;;;;5.60;2.60;;;;;;;9.52;92.53;100582.41;106110;1279;59727;-82
2022/05/25 03:42:06;;;;;;;6.00;2.50;;;;;;;9.53;92.51;100583.91;106128;1279;62318;-83
2022/05/25 03:44:34;;;;;;;3.40;2.50;;;;;;;9.53;92.51;100587.51;105996;1279;62557;-82
2022/05/25 03:47:04;;;;;;;5.10;2.60;;;;;;;9.55;92.44;100592.61;105748;1281;75437;-83
2022/05/25 03:49:36;;;;;;;4.30;2.60;;;;;;;9.57;92.52;100593.36;106044;1280;72036;-82
2022/05/25 03:52:04;;;;;;;6.60;2.60;;;;;;;9.60;92.20;100598.11;106052;1279;74544;-82
2022/05/25 03:54:32;;;;;;;5.00;2.50;;;;;;;9.62;92.39;100596.62;105976;1279;61351;-83
2022/05/25 03:56:58;;;;;;;5.60;2.50;;;;;;;9.64;92.04;100596.58;105969;1279;61190;-82
2022/05/25 03:59:27;;;;;;;4.20;2.10;;;;;;;9.66;92.19;100598.63;105975;1279;74127;-82
2022/05/25 04:01:56;;;;;;;5.40;2.40;;;;;;;9.69;92.16;100596.23;106146;1279;73277;-83
2022/05/25 04:04:24;;;;;;;5.10;2.80;;;;;;;9.71;92.40;100594.77;106145;1279;72930;-81
2022/05/25 04:06:54;;;;;;;5.40;2.20;;;;;;;9.74;92.21;100597.04;106216;1281;62424;-83
2022/05/25 04:09:23;;;;;;;5.00;2.50;;;;;;;9.77;92.08;100596.86;106946;1278;61471;-82
2022/05/25 04:11:58;;;;;;;;;;;;;;;9.82;91.96;100606.77;106999;1279;75176;-82
2022/05/25 04:14:27;;;;;;;4.10;2.10;;;;;;;9.85;91.92;100605.41;106608;1269;71426;-81
2022/05/25 04:16:59;;;;;;;4.40;2.80;;;;;;;9.87;92.00;100610.44;106041;1279;73493;-83
2022/05/25 04:19:38;;;;;;;7.70;2.90;;;;;;;9.90;92.08;100606.22;105858;1281;61269;-83
2022/05/25 04:22:09;;;;;;;3.50;2.20;;;;;;;9.94;91.65;100609.18;106208;1281;61309;-82
2022/05/25 04:24:43;;;;;;;5.80;2.90;;;;;;;9.98;91.69;100609.42;107235;1271;74960;-87
2022/05/25 04:27:21;;;;;;;6.60;2.90;;;;;;;10.02;91.67;100608.78;107067;1280;71418;-89
2022/05/25 04:30:04;;;;;;;5.20;2.90;;;;;;;10.09;91.63;100611.55;107324;1281;71708;-87
2022/05/25 04:32:32;;;;;;;5.40;3.60;;;;;;;10.15;91.48;100610.59;107183;1278;62537;-88
2022/05/25 04:35:03;;;;;;;3.60;2.50;;;;;;;10.22;91.32;100602.73;106661;1281;61942;-88
2022/05/25 04:37:49;;;;;;;6.60;3.70;;;;;;;10.31;91.06;100605.12;107022;1280;75270;-86
2022/05/25 04:40:23;;;;;;;4.10;2.50;;;;;;;10.39;90.98;100606.04;107641;1280;72104;-87
2022/05/25 04:42:50;;;;;;;5.20;2.90;;;;;;;10.46;90.68;100603.77;108011;1281;73085;-87
2022/05/25 04:45:21;;;;;;;5.40;2.80;;;;;;;10.53;90.39;100610.06;108055;1281;63068;-87
2022/05/25 04:47:48;;;;;;;6.80;3.50;;;;;;;10.61;90.17;100612.69;108040;1281;61172;-87
2022/05/25 04:50:18;;;;;;;5.40;3.00;;;;;;;10.69;89.78;100615.31;107957;1280;76459;-87
2022/05/25 04:52:45;;;;;;;4.00;2.30;;;;;;;10.77;89.82;100616.96;108218;1279;71885;-87
2022/05/25 04:58:00;;;;;;;5.40;3.50;;;;;;;10.96;88.85;100616.17;108165;1279;62292;-87
2022/05/25 05:00:28;;;;;;;5.50;3.80;;;;;;;11.06;88.75;100617.23;108017;1280;59486;-87
2022/05/25 05:02:55;;;;;;;5.60;3.40;;;;;;;11.16;88.24;100622.39;108170;1279;75085;-87
2022/05/25 05:05:22;;;;;;;5.10;3.20;;;;;;;11.26;88.08;100620.16;108085;1281;71334;-87
2022/05/25 05:07:49;;;;;;;6.00;3.10;;;;;;;11.35;87.61;100625.65;108088;1279;73503;-87
2022/05/25 05:10:16;;;;;;;4.20;3.00;;;;;;;11.43;87.34;100624.30;108116;1279;62286;-86
2022/05/25 05:13:04;;;;;;;4.30;2.90;;;;;;;11.53;87.13;100631.83;107437;1269;164813;-83
2022/05/25 05:15:41;;;;;;;6.60;2.90;;;;;;;11.63;86.87;100636.52;106163;1281;75236;-84
2022/05/25 05:18:08;;;;;;;6.10;3.20;;;;;;;11.70;85.58;100637.95;106053;1281;72335;-82
2022/05/25 05:20:38;;;;;;;6.80;3.90;;;;;;;11.77;85.42;100638.50;106216;1280;74236;-83
2022/05/25 05:23:09;;;;;;;7.20;4.20;;;;;;;11.85;84.88;100643.29;106150;1281;61161;-82
2022/05/25 05:25:37;;;;;;;6.40;3.80;;;;;;;11.91;83.91;100641.31;106283;1280;60618;-82
2022/05/25 05:28:11;;;;;;;5.90;4.40;;;;;;;11.98;84.05;100642.84;105986;1281;76888;-82
2022/05/25 05:31:02;;;;;;;6.60;4.30;;;;;;;12.06;83.90;100645.06;106482;1279;71359;-84
2022/05/25 05:33:36;;;;;;;8.90;5.00;;;;;;;12.16;83.60;100648.18;106009;1280;72953;-82
2022/05/25 05:36:31;;;;;;;7.10;3.70;;;;;;;12.24;82.94;100651.02;106145;1280;63341;-88
2022/05/25 05:39:06;;;;;;;6.00;3.40;;;;;;;12.31;83.21;100652.98;106214;1281;61320;-83
2022/05/25 05:41:46;;;;;;;5.70;3.70;;;;;;;12.38;83.03;100651.38;106023;1281;75998;-84
2022/05/25 05:44:38;;;;;;;5.50;3.30;;;;;;;12.47;82.88;100656.92;106038;1281;72879;-84
2022/05/25 05:47:10;;;;;;;10.50;5.10;;;;;;;12.56;82.86;100657.91;106885;1281;72719;-82
2022/05/25 05:49:50;;;;;;;;;;;;;;;;;;;;;
2022/05/25 05:52:31;;;;;;;7.90;5.60;;;;;;;12.68;80.67;100657.17;106271;1281;61786;-82
2022/05/25 05:55:20;;;;;;;9.20;6.10;;;;;;;12.73;80.29;100659.02;105831;1284;75131;-88
2022/05/25 05:57:56;;;;;;;5.60;3.80;;;;;;;12.80;79.63;100661.91;106112;1279;72876;-88
2022/05/25 06:00:23;;;;;;;8.70;6.20;;;;;;;12.83;79.25;100664.24;105892;1281;73802;-84
2022/05/25 06:02:50;;;;;;;8.10;5.80;;;;;;;12.88;78.97;100664.38;106142;1281;62483;-85
2022/05/25 06:05:25;;;;;;;8.40;4.40;;;;;;;12.94;79.06;100666.52;106134;1281;61571;-85
2022/05/25 06:07:52;;;;;;;6.30;4.20;;;;;;;12.99;78.24;100669.30;106266;1281;76213;-84
2022/05/25 06:10:19;;;;;;;5.10;3.50;;;;;;;13.04;78.68;100667.55;106377;1280;71446;-84
2022/05/25 06:12:50;;;;;;;5.80;4.40;;;;;;;13.14;79.00;100667.98;106145;1281;72560;-84
2022/05/25 06:21:27;;;;;;;5.70;3.90;;;;;;;13.38;78.35;100674.11;105860;1281;75286;-84
2022/05/25 06:23:59;;;;;;;6.70;4.00;;;;;;;13.49;77.43;100671.08;105938;1281;71410;-83
2022/05/25 06:26:32;;;;;;;6.60;4.80;;;;;;;13.56;77.28;100678.88;105837;1281;74268;-84
2022/05/25 06:29:04;;;;;;;5.60;3.80;;;;;;;13.63;76.36;100680.80;105774;1284;62223;-84
2022/05/25 06:31:44;;;;;;;;;;;;;;;;;;;;;
2022/05/25 06:34:25;;;;;;;7.60;4.90;;;;;;;13.74;75.64;100690.27;105999;1281;74942;-84
2022/05/25 06:36:55;;;;;;;5.70;3.80;;;;;;;13.83;75.66;100688.89;105877;1281;71383;-83
2022/05/25 06:39:25;;;;;;;7.30;4.80;;;;;;;13.91;75.13;100687.73;105706;1284;73124;-84
2022/05/25 06:42:06;;;;;;;7.90;5.20;;;;;;;14.03;74.42;100689.40;105842;1284;62343;-84
2022/05/25 06:44:33;;;;;;;8.70;4.80;;;;;;;14.09;73.73;100687.91;105835;1281;61448;-85
2022/05/25 06:47:03;;;;;;;7.80;5.10;;;;;;;14.18;74.25;100690.12;105936;1283;77357;-84
2022/05/25 06:49:30;;;;;;;8.80;5.00;;;;;;;14.33;74.18;100690.14;105913;1281;70749;-85
2022/05/25 06:51:57;;;;;;;8.30;5.60;;;;;;;14.45;72.95;100691.91;105993;1280;71853;-85
2022/05/25 06:54:31;;;;;;;6.30;4.40;;;;;;;14.58;72.13;100693.01;105843;1281;63161;-89
2022/05/25 06:57:01;;;;;;;10.80;5.90;;;;;;;14.63;71.14;100694.58;105806;1281;62495;-86
2022/05/25 06:59:28;;;;;;;8.20;4.80;;;;;;;14.73;71.28;100691.19;105808;1281;75611;-84
2022/05/25 07:02:00;;;;;;;7.90;5.20;;;;;;;14.84;71.12;100697.13;105764;1281;70284;-85
2022/05/25 07:04:30;;;;;;;7.20;4.30;;;;;;;14.97;71.24;100698.46;105764;1281;74028;-86
2022/05/25 07:07:05;;;;;;;6.70;4.10;;;;;;;15.08;69.74;100695.02;105898;1280;61360;-84
2022/05/25 07:09:33;;;;;;;7.10;4.90;;;;;;;15.17;69.30;100695.60;105846;1281;61287;-85
2022/05/25 07:12:00;;;;;;;8.90;4.40;;;;;;;15.37;68.85;100698.19;105959;1280;75843;-84
2022/05/25 07:14:26;;;;;;;8.20;3.80;;;;;;;15.48;68.84;100705.54;105895;1281;72896;-84
2022/05/25 07:16:55;;;;;;;4.80;3.50;;;;;;;15.47;67.77;100712.13;105694;1281;73680;-85
2022/05/25 07:19:22;;;;;;;10.00;4.40;;;;;;;15.38;66.89;100711.84;105794;1281;62853;-82
2022/05/25 07:21:49;;;;;;;6.10;4.60;;;;;;;15.40;67.32;100709.26;105865;1281;60336;-85
2022/05/25 07:24:17;;;;;;;6.90;3.20;;;;;;;15.62;67.74;100709.64;105585;1284;75536;-85
2022/05/25 07:26:44;;;;;;;6.10;4.00;;;;;;;15.75;67.07;100712.23;105804;1281;71690;-85
2022/05/25 07:29:45;;;;;;;;;;;;;;;;;;;;;
2022/05/25 07:32:15;;;;;;;4.20;2.90;;;;;;;15.57;66.31;100716.73;105800;1281;62260;-85
2022/05/25 07:34:59;;;;;;;4.20;2.80;;;;;;;15.57;65.64;100721.37;105894;1281;61244;-85
2022/05/25 07:37:38;;;;;;;6.80;4.00;;;;;;;15.73;65.24;100720.02;105549;1284;76725;-85
2022/05/25 07:40:18;;;;;;;4.20;2.80;;;;;;;15.79;64.56;100726.14;105767;1281;72257;-85
2022/05/25 07:42:48;;;;;;;7.00;3.20;;;;;;;15.84;65.10;100720.25;106113;1281;74030;-83
2022/05/25 07:45:18;;;;;;;5.90;3.40;;;;;;;15.86;64.96;100725.61;105873;1281;62458;-84
2022/05/25 07:47:49;;;;;;;3.20;2.10;;;;;;;15.85;64.10;100731.77;105851;1281;61310;-84
2022/05/25 07:50:16;;;;;;;3.00;1.30;;;;;;;15.81;62.36;100732.95;106101;1281;74270;-85
2022/05/25 07:52:43;;;;;;;3.20;2.20;;;;;;;15.61;60.66;100730.01;106025;1280;72936;-84
2022/05/25 07:55:11;;;;;;;3.90;2.00;;;;;;;15.38;60.95;100728.01;105906;1280;72918;-85
2022/05/25 07:57:41;;;;;;;3.40;1.60;;;;;;;15.23;62.00;100725.05;106201;1281;61368;-80
2022/05/25 08:00:20;;;;;;;2.90;1.20;;;;;;;15.14;61.99;100722.86;106579;1281;61804;-86
2022/05/25 08:06:11;;;;;;;;;;;;;;;;;;;;;
2022/05/25 08:08:56;;;;;;;3.60;1.90;;;;;;;15.43;62.99;100724.45;107731;1281;72831;-82
2022/05/25 08:11:27;;;;;;;3.30;1.90;;;;;;;15.51;62.41;100730.87;107723;1283;60665;-82
2022/05/25 08:14:43;;;;;;;1.60;0.90;;;;;;;15.51;61.51;100728.16;108013;1279;61025;-82
2022/05/25 08:17:20;;;;;;;3.10;1.40;;;;;;;15.58;59.96;100731.54;107758;1280;75385;-83
2022/05/25 08:19:49;;;;;;;2.40;1.00;;;;;;;15.83;58.53;100726.43;107374;1281;73292;-87
2022/05/25 08:22:23;;;;;;;3.20;1.20;;;;;;;16.08;57.97;100728.63;105806;1284;74162;-90
2022/05/25 08:24:57;;;;;;;2.70;1.10;;;;;;;16.39;56.51;100725.85;106173;1280;61169;-84
2022/05/25 08:27:26;;;;;;;1.70;0.90;;;;;;;16.62;56.52;100724.62;105948;1281;61284;-85
2022/05/25 08:29:59;;;;;;;2.20;1.00;;;;;;;16.82;56.49;100720.63;106015;1279;76106;-81
2022/05/25 08:32:31;;;;;;;2.80;0.90;;;;;;;16.96;54.95;100723.63;105587;1284;71187;-83
2022/05/25 08:35:13;;;;;;;1.90;0.80;;;;;;;17.03;54.64;100729.77;105805;1281;73091;-86
2022/05/25 08:37:57;;;;;;;2.50;1.00;;;;;;;17.03;52.83;100722.43;105940;1280;61839;-82
2022/05/25 08:40:29;;;;;;;1.60;0.80;;;;;;;17.05;53.24;100726.95;105918;1281;62346;-85
2022/05/25 08:43:12;;;;;;;1.40;0.90;;;;;;;17.06;53.59;100722.25;105948;1281;74369;-83
2022/05/25 08:46:02;;;;;;;3.10;1.30;;;;;;;17.18;54.72;100723.44;105856;1281;71656;-89
2022/05/25 08:48:31;;;;;;;2.00;1.10;;;;;;;17.30;52.91;100730.08;105859;1281;73211;-86
2022/05/25 08:51:02;;;;;;;2.00;1.00;;;;;;;17.39;52.00;100728.09;105741;1281;61404;-84
2022/05/25 08:53:40;;;;;;;2.40;0.90;;;;;;;17.48;52.17;100723.36;105870;1281;61191;-84
2022/05/25 08:56:38;;;;;;;3.20;1.10;;;;;;;17.52;51.64;100723.73;105808;1281;76035;-85
2022/05/25 08:59:17;;;;;;;2.30;1.10;;;;;;;17.55;51.78;100714.88;106028;1281;71403;-83
2022/05/25 09:01:52;;;;;;;2.80;1.10;;;;;;;17.50;52.19;100717.08;106132;1281;73372;-84
2022/05/25 09:04:19;;;;;;;1.60;1.00;;;;;;;17.53;52.11;100714.08;105872;1281;61387;-84
2022/05/25 09:07:36;;;;;;;2.30;1.00;;;;;;;17.40;52.62;100723.20;105986;1279;60594;-84
2022/05/25 09:10:20;;;;;;;1.90;1.00;;;;;;;17.25;53.71;100726.31;105816;1282;75489;-87
2022/05/25 09:13:11;;;;;;;3.10;1.20;;;;;;;17.25;53.34;100724.04;105857;1280;72274;-85
2022/05/25 09:16:30;;;;;;;2.30;1.00;;;;;;;17.36;53.67;100720.36;105551;1282;73251;-84
2022/05/25 09:18:37;;;;;;;2.60;1.20;;;;;;;17.49;53.55;100721.45;105621;1281;61308;-84
2022/05/25 09:21:07;;;;;;;2.40;1.00;;;;;;;17.39;52.93;100725.69;105970;1281;61295;-83
2022/05/25 09:23:54;;;;;;;1.90;1.10;;;;;;;17.23;53.95;100724.96;105747;1282;75447;-84
2022/05/25 09:26:27;;;;;;;2.10;1.00;;;;;;;17.37;53.59;100726.33;105888;1280;72221;-85
2022/05/25 09:29:05;;;;;;;1.80;0.80;;;;;;;17.56;52.79;100719.98;106147;1280;76688;-85
2022/05/25 09:35:25;;;;;;;2.80;1.20;;;;;;;17.98;50.86;100712.45;106249;1280;74847;-82
2022/05/25 09:38:25;;;;;;;1.70;0.80;;;;;;;18.10;49.77;100714.09;105876;1279;72422;-85
2022/05/25 09:40:55;;;;;;;5.20;1.10;;;;;;;18.01;49.98;100713.00;105382;1284;73126;-85
2022/05/25 09:43:43;;;;;;;1.70;0.70;;;;;;;17.92;50.07;100714.63;105701;1281;62403;-86
2022/05/25 09:46:24;;;;;;;1.60;1.00;;;;;;;17.90;50.34;100708.98;105849;1281;61140;-85
2022/05/25 09:48:55;;;;;;;3.00;0.90;;;;;;;17.93;51.23;100716.22;105811;1281;75687;-83
2022/05/25 09:51:35;;;;;;;0.90;0.60;;;;;;;17.84;50.79;100717.34;105698;1281;71540;-85
2022/05/25 09:54:18;;;;;;;2.80;0.80;;;;;;;17.67;49.53;100719.91;105872;1279;74226;-86
2022/05/25 09:57:09;;;;;;;3.60;1.10;;;;;;;17.64;49.15;100715.21;106038;1279;61699;-86
2022/05/25 09:59:48;;;;;;;2.20;1.20;;;;;;;17.65;50.03;100715.24;106050;1279;61228;-83
2022/05/25 10:02:27;;;;;;;2.20;1.00;;;;;;;17.71;50.66;100718.98;106110;1279;76215;-84
2022/05/25 10:04:57;;;;;;;2.90;1.00;;;;;;;17.75;51.21;100716.02;105815;1281;73190;-82
2022/05/25 10:07:35;;;;;;;1.70;0.60;;;;;;;17.75;51.95;100719.31;105713;1279;74041;-81
2022/05/25 10:10:09;;;;;;;2.10;1.10;;;;;;;17.96;51.65;100717.27;105775;1279;61280;-82
2022/05/25 10:12:39;;;;;;;3.30;1.30;;;;;;;17.92;50.88;100717.05;105550;1281;61726;-81
2022/05/25 10:15:15;;;;;;;2.30;1.80;;;;;;;18.08;50.77;100713.58;105744;1281;75053;-82
2022/05/25 10:17:46;;;;;;;2.90;0.90;;;;;;;18.24;49.50;100707.23;105634;1281;72871;-85
2022/05/25 10:20:27;;;;;;;4.00;1.30;;;;;;;18.42;48.86;100705.64;105633;1281;74102;-85
2022/05/25 10:23:09;;;;;;;2.40;1.10;;;;;;;18.65;48.44;100702.56;105522;1281;61165;-85
2022/05/25 10:25:42;;;;;;;1.50;1.00;;;;;;;18.73;47.88;100705.72;105881;1281;61278;-86
2022/05/25 10:28:29;;;;;;;3.60;1.10;;;;;;;18.71;47.71;100706.79;105775;1281;75113;-84
2022/05/25 10:37:13;;;;;;;3.10;1.30;;;;;;;18.40;47.29;100706.54;105822;1281;61941;-84
2022/05/25 10:39:44;;;;;;;2.20;1.30;;;;;;;18.25;48.07;100716.38;105924;1281;61689;-82
2022/05/25 10:42:18;;;;;;;1.80;0.90;;;;;;;18.20;47.84;100715.14;105725;1281;75046;-80
2022/05/25 10:45:07;;;;;;;1.80;1.00;;;;;;;18.23;48.03;100714.40;105765;1282;73330;-82
2022/05/25 10:48:07;;;;;;;3.10;1.40;;;;;;;18.46;47.46;100713.73;105702;1281;72702;-82
2022/05/25 10:50:46;;;;;;;2.50;1.30;;;;;;;18.73;46.98;100700.34;105961;1280;61375;-83
2022/05/25 10:53:38;;;;;;;2.70;1.20;;;;;;;18.76;47.47;100701.47;105963;1281;63884;-83
2022/05/25 10:56:26;;;;;;;4.40;1.20;;;;;;;18.66;46.65;100703.67;105862;1281;75109;-82
2022/05/25 10:59:05;;;;;;;1.60;0.90;;;;;;;18.72;46.35;100708.27;106043;1279;71520;-82
2022/05/25 11:01:57;;;;;;;2.70;1.40;;;;;;;18.91;46.27;100698.20;105681;1279;73437;-82
2022/05/25 11:04:33;;;;;;;1.40;1.10;;;;;;;19.15;45.28;100694.70;105695;1280;62552;-83
2022/05/25 11:07:30;;;;;;;3.60;1.20;;;;;;;19.44;45.56;100692.11;105650;1281;62467;-84
2022/05/25 11:10:07;;;;;;;2.10;1.00;;;;;;;19.73;44.78;100700.79;105761;1280;74938;-86
2022/05/25 11:12:50;;;;;;;2.60;1.30;;;;;;;19.91;42.71;100696.07;105617;1280;72037;-82
2022/05/25 11:15:29;;;;;;;2.70;1.20;;;;;;;20.14;42.68;100692.99;105786;1279;71672;-82
2022/05/25 11:18:25;;;;;;;2.40;0.80;;;;;;;20.49;42.25;100694.87;105908;1279;60631;-85
2022/05/25 11:21:09;;;;;;;2.70;0.70;;;;;;;20.73;40.31;100690.31;105448;1281;62653;-83
2022/05/25 11:24:14;;;;;;;2.10;0.90;;;;;;;20.92;40.59;100689.14;105729;1281;75571;-82
2022/05/25 11:26:53;;;;;;;2.30;1.00;;;;;;;21.03;39.58;100690.35;105713;1281;75115;-84
2022/05/25 11:30:05;;;;;;;1.50;0.70;;;;;;;20.90;39.03;100702.27;106006;1280;73322;-82
2022/05/25 11:32:37;;;;;;;1.20;0.60;;;;;;;20.87;38.41;100685.21;106152;1280;61687;-83
2022/05/25 11:35:26;;;;;;;1.60;0.60;;;;;;;20.84;38.68;100698.06;107529;1281;61665;-81
2022/05/25 11:38:11;;;;;;;1.50;0.60;;;;;;;20.86;38.20;100694.05;107569;1281;74917;-83
2022/05/25 11:41:08;;;;;;;1.80;0.50;;;;;;;20.86;37.84;100687.80;107910;1281;71352;-83
2022/05/25 11:43:57;;;;;;;2.00;0.70;;;;;;;20.80;39.62;100681.50;107421;1279;73023;-82
2022/05/25 11:46:42;;;;;;;1.50;0.40;;;;;;;20.90;38.98;100689.16;107872;1279;60599;-83
2022/05/25 11:49:40;;;;;;;1.30;0.40;;;;;;;21.24;38.26;100675.02;107876;1279;61613;-82
2022/05/25 11:52:31;;;;;;;1.50;0.40;;;;;;;21.60;38.16;100677.81;107566;1280;75006;-82
2022/05/25 11:55:50;;;;;;;1.60;0.80;;;;;;;21.51;37.57;100671.85;107338;1281;71637;-82
2022/05/25 11:58:50;;;;;;;2.90;0.60;;;;;;;21.36;37.36;100679.76;107414;1280;71552;-82
2022/05/25 12:01:25;;;;;;;2.90;0.50;;;;;;;21.07;37.27;100679.94;107629;1281;60556;-81
2022/05/25 12:04:46;;;;;;;1.60;0.40;;;;;;;20.92;37.66;100681.11;108030;1279;61231;-82
2022/05/25 12:07:39;;;;;;;1.00;0.30;;;;;;;21.00;38.72;100688.80;106741;1287;76140;-80
2022/05/25 12:10:25;;;;;;;5.00;0.50;;;;;;;21.13;37.57;100694.28;107924;1281;71320;-82
2022/05/25 12:13:17;;;;;;;2.20;0.70;;;;;;;21.53;37.28;100685.58;107537;1283;72823;-82
2022/05/25 12:16:00;;;;;;;1.40;0.70;;;;;;;21.78;36.88;100685.72;107590;1281;61203;-82
2022/05/25 12:18:47;;;;;;;2.30;0.70;;;;;;;21.93;36.11;100686.81;107377;1281;61175;-83
2022/05/25 12:21:15;;;;;;;;;;;;;;;22.33;35.83;100683.43;107832;1281;75155;-84
2022/05/25 12:23:48;;;;;;;1.50;0.60;;;;;;;22.59;35.27;100683.65;107861;1280;70492;-80
2022/05/25 12:26:26;;;;;;;4.20;0.60;;;;;;;22.59;35.54;100690.47;107450;1283;74354;-82
2022/05/25 12:29:18;;;;;;;4.20;0.70;;;;;;;22.69;35.34;100681.48;107582;1279;60881;-83